Time;durP1;ratioP1;P1;durP2;ratioP2;P2;SDS_P1;SDS_P2;PMS_P1;PMS_P2;Temp;Humidity;BMP_temperature;BMP_pressure;BME280_temperature;BME280_humidity;BME280_pressure;Samples;Min_cycle;Max_cycle;Signal;HPM_P1;HPM_P2
2023/03/14 00:00:41;;;;;;;0.30;0.30;;;;;;;18.53;100.00;94830.06;5048966;28;20084;-47
2023/03/14 00:03:09;;;;;;;0.43;0.30;;;;;;;18.57;100.00;94842.72;5046723;28;20091;-51
2023/03/14 00:05:37;;;;;;;0.60;0.30;;;;;;;18.83;97.49;94846.78;5052344;28;20088;-50
2023/03/14 00:08:07;;;;;;;1.50;0.30;;;;;;;18.44;100.00;94848.28;5048243;28;20092;-50
2023/03/14 00:10:38;;;;;;;0.13;0.13;;;;;;;18.27;100.00;94848.16;5042590;28;20088;-50
2023/03/14 00:13:06;;;;;;;0.28;0.20;;;;;;;17.72;100.00;94829.75;5048443;28;20911;-47
2023/03/14 00:15:35;;;;;;;0.30;0.30;;;;;;;18.20;100.00;94818.97;5048395;28;20471;-46
2023/03/14 00:18:03;;;;;;;0.20;0.20;;;;;;;18.37;100.00;94804.91;5048479;28;20458;-45
2023/03/14 00:20:31;;;;;;;0.95;0.20;;;;;;;18.36;100.00;94803.28;5048524;28;20084;-48
2023/03/14 00:23:00;;;;;;;0.52;0.35;;;;;;;18.05;100.00;94797.25;5048073;28;20080;-44
2023/03/14 00:25:28;;;;;;;0.20;0.20;;;;;;;17.82;100.00;94786.56;5047887;28;20072;-47
2023/03/14 00:27:58;;;;;;;0.20;0.20;;;;;;;17.49;100.00;94798.56;5048310;28;20076;-48
2023/03/14 00:30:26;;;;;;;0.15;0.10;;;;;;;17.42;100.00;94819.16;5043413;28;20467;-49
2023/03/14 00:32:54;;;;;;;0.40;0.30;;;;;;;18.22;100.00;94824.06;5048454;28;20694;-49
2023/03/14 00:35:23;;;;;;;0.65;0.22;;;;;;;18.22;100.00;94821.38;5042422;28;20076;-52
2023/03/14 00:37:51;;;;;;;0.10;0.10;;;;;;;18.49;100.00;94817.19;5048396;28;20085;-51
2023/03/14 00:40:19;;;;;;;1.05;0.50;;;;;;;18.29;100.00;94813.28;5046618;28;20139;-51
2023/03/14 00:42:47;;;;;;;0.22;0.22;;;;;;;18.62;97.14;94785.97;5053085;28;20095;-46
2023/03/14 00:45:17;;;;;;;1.15;0.40;;;;;;;18.72;92.83;94770.19;5047397;28;20088;-47
2023/03/14 00:47:46;;;;;;;0.63;0.40;;;;;;;17.61;100.00;94786.06;5048431;28;20081;-49
2023/03/14 00:50:14;;;;;;;0.65;0.30;;;;;;;17.36;100.00;94796.09;5048164;28;20077;-48
2023/03/14 00:52:42;;;;;;;1.20;0.30;;;;;;;17.06;100.00;94799.56;5048642;28;20077;-46
2023/03/14 00:55:10;;;;;;;0.57;0.38;;;;;;;17.27;100.00;94812.41;5047662;28;20068;-49
2023/03/14 00:57:38;;;;;;;0.20;0.20;;;;;;;16.93;100.00;94823.72;5048257;28;20087;-48
2023/03/14 01:00:11;;;;;;;1.55;0.20;;;;;;;16.96;100.00;94828.59;5047019;28;20103;-46
2023/03/14 01:02:41;;;;;;;0.90;0.20;;;;;;;17.06;100.00;94823.53;5044255;28;20041;-48
2023/03/14 01:05:10;;;;;;;0.20;0.20;;;;;;;17.11;100.00;94826.34;5052005;28;20077;-49
2023/03/14 01:07:38;;;;;;;2.20;0.30;;;;;;;17.07;100.00;94827.84;5048275;28;20574;-52
2023/03/14 01:10:08;;;;;;;0.90;0.30;;;;;;;17.15;100.00;94830.19;5047470;28;20089;-49
2023/03/14 01:12:36;;;;;;;0.35;0.20;;;;;;;17.09;100.00;94839.88;5045289;28;20135;-45
2023/03/14 01:15:06;;;;;;;0.77;0.20;;;;;;;17.28;100.00;94850.50;5045874;28;20092;-50
2023/03/14 01:17:34;;;;;;;0.50;0.20;;;;;;;16.74;100.00;94839.72;5048240;28;20084;-47
2023/03/14 01:20:06;;;;;;;0.22;0.20;;;;;;;17.00;100.00;94846.56;5047429;28;20080;-45
2023/03/14 01:22:34;;;;;;;0.63;0.30;;;;;;;17.05;100.00;94852.03;5047731;28;20080;-46
2023/03/14 01:25:03;;;;;;;0.35;0.20;;;;;;;17.23;100.00;94853.03;5047476;28;20081;-50
2023/03/14 01:27:31;;;;;;;1.58;0.20;;;;;;;17.51;100.00;94845.25;5048130;28;20455;-50
2023/03/14 01:30:00;;;;;;;1.58;0.40;;;;;;;17.50;100.00;94851.63;5048427;28;20091;-50
2023/03/14 01:32:28;;;;;;;0.20;0.20;;;;;;;17.59;100.00;94846.78;5046782;28;20121;-47
2023/03/14 01:34:56;;;;;;;1.17;0.20;;;;;;;17.35;100.00;94861.09;5047926;28;20088;-47
2023/03/14 01:37:26;;;;;;;0.10;0.10;;;;;;;16.50;100.00;94860.00;5051390;28;20072;-47
2023/03/14 01:39:54;;;;;;;2.17;0.40;;;;;;;16.13;100.00;94859.13;5051812;28;20076;-44
2023/03/14 01:42:23;;;;;;;0.20;0.20;;;;;;;16.09;100.00;94861.41;5051351;28;20091;-44
2023/03/14 01:44:53;;;;;;;0.40;0.20;;;;;;;16.30;100.00;94875.34;5051137;28;20085;-46
2023/03/14 01:47:22;;;;;;;0.10;0.10;;;;;;;16.43;100.00;94874.41;5051231;28;20091;-49
2023/03/14 01:49:52;;;;;;;0.45;0.20;;;;;;;16.02;100.00;94878.47;5051869;28;20214;-50
2023/03/14 01:52:23;;;;;;;1.10;0.50;;;;;;;15.95;100.00;94875.03;5051132;28;20418;-52
2023/03/14 01:54:55;;;;;;;0.40;0.30;;;;;;;15.84;100.00;94876.56;5043676;28;20077;-47
2023/03/14 01:57:25;;;;;;;0.10;0.10;;;;;;;15.90;100.00;94867.72;5050142;28;20120;-44
2023/03/14 01:59:55;;;;;;;0.10;0.10;;;;;;;15.98;100.00;94877.28;5051104;28;20085;-49
2023/03/14 02:02:25;;;;;;;0.40;0.20;;;;;;;16.11;100.00;94869.19;5051015;28;20085;-46
2023/03/14 02:04:54;;;;;;;0.20;0.20;;;;;;;15.75;100.00;94886.63;5053659;28;20486;-46
2023/03/14 02:07:24;;;;;;;0.20;0.20;;;;;;;15.46;100.00;94885.38;5050827;28;20084;-46
2023/03/14 02:09:55;;;;;;;0.77;0.30;;;;;;;15.59;100.00;94872.00;5048792;28;20080;-46
2023/03/14 02:12:24;;;;;;;0.30;0.25;;;;;;;15.30;100.00;94886.66;5050895;28;20080;-48
2023/03/14 02:14:52;;;;;;;1.80;0.38;;;;;;;15.93;100.00;94885.06;5050529;28;20072;-46
2023/03/14 02:17:21;;;;;;;1.55;0.30;;;;;;;15.98;100.00;94879.94;5050588;28;20088;-47
2023/03/14 02:19:59;;;;;;;0.68;0.40;;;;;;;15.38;100.00;94881.13;5050958;28;20490;-49
2023/03/14 02:22:27;;;;;;;0.28;0.10;;;;;;;15.71;100.00;94861.50;5050422;28;20092;-47
2023/03/14 02:25:01;;;;;;;1.85;0.30;;;;;;;15.95;100.00;94853.78;5050516;28;20558;-50
2023/03/14 02:27:30;;;;;;;1.65;0.20;;;;;;;15.83;100.00;94841.19;5050387;28;20153;-45
2023/03/14 02:30:01;;;;;;;1.63;0.30;;;;;;;16.31;100.00;94821.94;5051046;28;20486;-45
2023/03/14 02:32:31;;;;;;;0.20;0.20;;;;;;;16.26;100.00;94826.28;5049646;28;20085;-48
2023/03/14 02:35:01;;;;;;;1.35;0.47;;;;;;;16.76;100.00;94811.03;5051893;28;20087;-47
2023/03/14 02:37:36;;;;;;;2.47;0.40;;;;;;;17.34;100.00;94793.63;5050143;28;20081;-47
2023/03/14 02:40:05;;;;;;;0.50;0.30;;;;;;;17.51;100.00;94770.63;5048790;28;20091;-45
2023/03/14 02:42:35;;;;;;;0.65;0.55;;;;;;;17.25;100.00;94744.41;5050064;28;20073;-45
2023/03/14 02:45:33;;;;;;;1.27;0.30;;;;;;;17.93;100.00;94733.28;5050289;28;20091;-47
2023/03/14 02:48:04;;;;;;;2.22;0.30;;;;;;;17.62;100.00;94723.72;5046307;28;20084;-49
2023/03/14 02:50:34;;;;;;;0.43;0.28;;;;;;;17.41;100.00;94718.94;5048588;28;20081;-45
2023/03/14 02:53:03;;;;;;;1.63;0.30;;;;;;;17.32;100.00;94724.63;5049945;28;20068;-44
2023/03/14 02:55:31;;;;;;;0.20;0.20;;;;;;;17.21;100.00;94725.41;5049294;28;20091;-50
2023/03/14 02:58:01;;;;;;;3.10;0.40;;;;;;;17.10;100.00;94728.84;5050006;28;20475;-49
2023/03/14 03:00:30;;;;;;;1.60;0.20;;;;;;;17.51;100.00;94714.66;5049761;28;20115;-45
2023/03/14 03:02:58;;;;;;;0.17;0.13;;;;;;;17.51;100.00;94709.31;5051076;28;20075;-45
2023/03/14 03:05:27;;;;;;;2.03;0.40;;;;;;;17.28;100.00;94715.47;5048935;28;20084;-46
2023/03/14 03:07:56;;;;;;;0.22;0.15;;;;;;;18.19;100.00;94718.59;5045194;28;20087;-49
2023/03/14 03:10:25;;;;;;;1.13;0.43;;;;;;;17.84;100.00;94721.31;5050083;28;20434;-46
2023/03/14 03:12:53;;;;;;;0.50;0.20;;;;;;;17.68;100.00;94716.66;5049717;28;20083;-47
2023/03/14 03:15:23;;;;;;;1.98;0.28;;;;;;;17.67;100.00;94721.16;5049358;28;20081;-45
2023/03/14 03:17:51;;;;;;;0.20;0.10;;;;;;;17.36;100.00;94724.16;5049947;28;20080;-46
2023/03/14 03:20:19;;;;;;;2.92;0.20;;;;;;;17.60;100.00;94720.47;5049769;28;20084;-48
2023/03/14 03:22:49;;;;;;;0.80;0.30;;;;;;;16.83;100.00;94731.91;5050057;28;20091;-44
2023/03/14 03:25:18;;;;;;;0.65;0.32;;;;;;;17.06;100.00;94725.00;5048069;28;20065;-47
2023/03/14 03:27:46;;;;;;;0.85;0.20;;;;;;;17.13;100.00;94716.91;5049580;28;20084;-44
2023/03/14 03:30:15;;;;;;;0.20;0.20;;;;;;;17.07;100.00;94714.16;5049618;28;20080;-45
2023/03/14 03:32:44;;;;;;;0.55;0.20;;;;;;;17.05;100.00;94707.41;5049914;28;20064;-50
2023/03/14 03:35:13;;;;;;;0.50;0.20;;;;;;;17.15;100.00;94705.00;5046609;28;20103;-48
2023/03/14 03:37:41;;;;;;;0.57;0.20;;;;;;;16.74;100.00;94703.13;5048866;28;20502;-44
2023/03/14 03:40:11;;;;;;;0.43;0.30;;;;;;;16.93;100.00;94699.41;5049479;28;20095;-47
2023/03/14 03:42:39;;;;;;;0.22;0.20;;;;;;;17.04;100.00;94695.16;5050327;28;20263;-51
2023/03/14 03:45:08;;;;;;;0.70;0.30;;;;;;;16.58;100.00;94702.69;5049095;28;20079;-51
2023/03/14 03:47:37;;;;;;;2.45;0.30;;;;;;;16.76;100.00;94693.91;5045562;28;20447;-46
2023/03/14 03:50:07;;;;;;;0.28;0.20;;;;;;;16.90;100.00;94689.22;5049327;28;20083;-52
2023/03/14 03:52:36;;;;;;;0.20;0.20;;;;;;;16.68;100.00;94677.41;5046326;28;20091;-48
2023/03/14 03:55:05;;;;;;;1.30;0.30;;;;;;;16.74;100.00;94680.00;5048936;28;20076;-45
2023/03/14 03:57:33;;;;;;;1.50;0.20;;;;;;;16.93;100.00;94680.78;5048848;28;20478;-44
2023/03/14 04:00:01;;;;;;;0.15;0.15;;;;;;;17.25;100.00;94675.16;5049283;28;20465;-45
2023/03/14 04:02:30;;;;;;;0.10;0.10;;;;;;;16.50;100.00;94683.59;5044968;28;20071;-44
2023/03/14 04:04:58;;;;;;;0.40;0.20;;;;;;;17.25;100.00;94685.81;5049871;28;20077;-48
2023/03/14 04:07:28;;;;;;;0.40;0.20;;;;;;;17.11;100.00;94677.22;5048593;28;20076;-47
2023/03/14 04:09:56;;;;;;;0.43;0.20;;;;;;;16.52;100.00;94676.22;5049105;28;20091;-48
2023/03/14 04:12:24;;;;;;;1.85;0.30;;;;;;;16.94;100.00;94669.06;5049005;28;20080;-47
2023/03/14 04:14:53;;;;;;;0.40;0.20;;;;;;;16.55;100.00;94679.22;5048597;28;20076;-47
2023/03/14 04:17:21;;;;;;;0.20;0.20;;;;;;;16.28;100.00;94670.78;5047952;28;20510;-48
2023/03/14 04:19:51;;;;;;;0.63;0.20;;;;;;;16.76;100.00;94659.31;5049179;28;20077;-44
2023/03/14 04:22:19;;;;;;;1.20;0.20;;;;;;;16.60;100.00;94665.22;5048343;28;20526;-50
2023/03/14 04:24:49;;;;;;;0.52;0.20;;;;;;;16.04;100.00;94674.34;5047948;28;20069;-49
2023/03/14 04:27:17;;;;;;;0.40;0.10;;;;;;;16.32;100.00;94666.63;5047261;28;20514;-49
2023/03/14 04:29:46;;;;;;;0.73;0.20;;;;;;;16.47;100.00;94660.91;5048720;28;20502;-46
2023/03/14 04:32:14;;;;;;;1.10;0.13;;;;;;;16.32;100.00;94653.31;5048301;28;20068;-44
2023/03/14 04:34:42;;;;;;;0.17;0.17;;;;;;;16.26;100.00;94656.06;5047957;28;20091;-44
2023/03/14 04:37:11;;;;;;;1.50;0.30;;;;;;;16.05;100.00;94657.34;5048468;28;20076;-45
2023/03/14 04:39:39;;;;;;;0.10;0.10;;;;;;;16.29;100.00;94650.31;5046861;28;20079;-48
2023/03/14 04:42:09;;;;;;;0.40;0.15;;;;;;;16.28;100.00;94644.19;5047967;28;20080;-46
2023/03/14 04:44:37;;;;;;;0.10;0.10;;;;;;;16.50;100.00;94644.47;5046243;28;20522;-45
2023/03/14 04:47:05;;;;;;;0.80;0.20;;;;;;;16.70;100.00;94643.41;5048601;28;20111;-48
2023/03/14 04:49:34;;;;;;;0.65;0.22;;;;;;;16.50;100.00;94633.84;5048254;28;20530;-44
2023/03/14 04:52:03;;;;;;;0.10;0.10;;;;;;;16.73;100.00;94635.78;5047983;28;20080;-44
2023/03/14 04:54:31;;;;;;;0.17;0.17;;;;;;;16.09;100.00;94650.53;5047858;28;20080;-50
2023/03/14 04:57:00;;;;;;;0.25;0.20;;;;;;;16.19;100.00;94639.38;5047940;28;20072;-44
2023/03/14 04:59:29;;;;;;;0.13;0.13;;;;;;;16.26;100.00;94646.22;5047644;28;20087;-44
2023/03/14 05:01:58;;;;;;;0.67;0.20;;;;;;;16.11;100.00;94636.00;5046031;28;20513;-47
2023/03/14 05:04:26;;;;;;;0.17;0.17;;;;;;;16.25;100.00;94630.50;5049635;28;20079;-47
2023/03/14 05:06:54;;;;;;;1.20;0.20;;;;;;;15.84;100.00;94630.19;5048311;28;20072;-46
2023/03/14 05:09:22;;;;;;;0.20;0.20;;;;;;;16.43;100.00;94619.00;5045395;28;20470;-48
2023/03/14 05:11:51;;;;;;;0.80;0.20;;;;;;;16.23;100.00;94611.31;5052515;28;20081;-44
2023/03/14 05:14:19;;;;;;;0.20;0.20;;;;;;;15.84;100.00;94616.91;5049230;28;20158;-49
2023/03/14 05:16:49;;;;;;;0.30;0.30;;;;;;;16.24;100.00;94619.06;5050132;28;20084;-48
2023/03/14 05:19:17;;;;;;;0.37;0.20;;;;;;;16.37;100.00;94631.34;5052095;28;20068;-50
2023/03/14 05:21:46;;;;;;;0.10;0.10;;;;;;;15.93;100.00;94629.88;5046467;28;20085;-49
2023/03/14 05:24:14;;;;;;;0.10;0.10;;;;;;;16.14;100.00;94626.78;5051882;28;20565;-48
2023/03/14 05:26:42;;;;;;;0.10;0.10;;;;;;;15.79;100.00;94619.38;5046492;28;20108;-47
2023/03/14 05:29:11;;;;;;;0.15;0.10;;;;;;;15.77;100.00;94621.47;5051764;28;20080;-46
2023/03/14 05:31:39;;;;;;;0.20;0.20;;;;;;;15.87;100.00;94613.78;5051754;28;20081;-50
2023/03/14 05:34:09;;;;;;;0.65;0.30;;;;;;;15.95;100.00;94617.19;5050748;28;20083;-47
2023/03/14 05:36:39;;;;;;;0.38;0.25;;;;;;;15.83;100.00;94617.94;5051492;28;20068;-48
2023/03/14 05:39:07;;;;;;;0.10;0.10;;;;;;;15.64;100.00;94624.25;5051684;28;20081;-50
2023/03/14 05:41:35;;;;;;;0.35;0.17;;;;;;;15.69;100.00;94629.75;5050678;28;20091;-46
2023/03/14 05:44:04;;;;;;;0.10;0.10;;;;;;;15.35;100.00;94623.94;5050291;28;20068;-45
2023/03/14 05:46:32;;;;;;;0.10;0.10;;;;;;;16.10;100.00;94617.59;5051504;28;20044;-47
2023/03/14 05:49:01;;;;;;;0.52;0.20;;;;;;;15.18;100.00;94628.19;5051461;28;20075;-49
2023/03/14 05:51:30;;;;;;;1.05;0.25;;;;;;;15.94;100.00;94627.00;5076232;28;20076;-45
2023/03/14 05:53:59;;;;;;;0.30;0.20;;;;;;;15.52;100.00;94623.34;5049921;28;20363;-44
2023/03/14 05:56:27;;;;;;;1.00;0.22;;;;;;;15.67;100.00;94615.88;5051408;28;20455;-47
2023/03/14 05:58:55;;;;;;;2.22;0.15;;;;;;;15.48;100.00;94617.66;5050897;28;20553;-45
2023/03/14 06:01:24;;;;;;;0.40;0.10;;;;;;;16.28;100.00;94606.13;5051043;28;20073;-48
2023/03/14 06:03:52;;;;;;;0.95;0.30;;;;;;;15.27;100.00;94610.13;5052529;28;20557;-48
2023/03/14 06:06:20;;;;;;;0.47;0.20;;;;;;;16.01;100.00;94601.16;5047800;28;20465;-52
2023/03/14 06:08:50;;;;;;;1.35;0.20;;;;;;;15.56;100.00;94600.63;5051339;28;20068;-49
2023/03/14 06:11:18;;;;;;;0.23;0.20;;;;;;;15.93;100.00;94598.78;5054136;28;20088;-47
2023/03/14 06:13:46;;;;;;;0.20;0.20;;;;;;;15.64;100.00;94603.00;5050480;28;20557;-49
2023/03/14 06:16:15;;;;;;;0.68;0.30;;;;;;;15.94;100.00;94595.09;5050384;28;20088;-50
2023/03/14 06:18:43;;;;;;;0.30;0.20;;;;;;;15.88;100.00;94598.66;5047510;28;20073;-45
2023/03/14 06:21:11;;;;;;;4.38;0.35;;;;;;;15.94;100.00;94596.97;5049930;28;20081;-50
2023/03/14 06:23:40;;;;;;;0.52;0.17;;;;;;;15.69;100.00;94602.34;5050056;28;20092;-45
2023/03/14 06:26:11;;;;;;;0.52;0.20;;;;;;;15.72;100.00;94608.03;5050877;28;20068;-44
2023/03/14 06:28:39;;;;;;;0.52;0.32;;;;;;;15.44;100.00;94603.19;5048656;28;20072;-49
2023/03/14 06:31:08;;;;;;;0.60;0.20;;;;;;;15.72;100.00;94591.28;5050917;28;20080;-49
2023/03/14 06:33:36;;;;;;;0.65;0.30;;;;;;;16.05;100.00;94601.50;5050599;28;20465;-47
2023/03/14 06:36:05;;;;;;;0.35;0.10;;;;;;;15.79;100.00;94595.47;5049151;28;20076;-47
2023/03/14 06:38:33;;;;;;;0.17;0.10;;;;;;;15.84;100.00;94586.84;5050519;28;20104;-49
2023/03/14 06:41:04;;;;;;;0.68;0.20;;;;;;;15.89;100.00;94589.63;5050567;28;20088;-47
2023/03/14 06:43:34;;;;;;;0.82;0.30;;;;;;;16.33;96.77;94582.31;5051557;28;20060;-47
2023/03/14 06:46:02;;;;;;;1.37;0.60;;;;;;;16.21;96.56;94581.44;5046995;28;20045;-48
2023/03/14 06:48:31;;;;;;;1.77;0.65;;;;;;;16.04;92.71;94573.31;5048700;28;20492;-48
2023/03/14 06:50:59;;;;;;;1.95;1.00;;;;;;;16.44;91.71;94570.88;5050756;28;20079;-52
2023/03/14 06:53:27;;;;;;;1.70;0.90;;;;;;;16.75;87.48;94563.69;5050166;28;20064;-53
2023/03/14 06:55:56;;;;;;;2.28;0.80;;;;;;;16.69;85.33;94559.25;5049850;28;20079;-48
2023/03/14 06:58:24;;;;;;;2.95;0.93;;;;;;;16.90;82.89;94568.59;5049666;28;20069;-51
2023/03/14 07:00:56;;;;;;;1.05;0.45;;;;;;;16.79;89.68;94576.34;5049281;28;20077;-48
2023/03/14 07:03:24;;;;;;;0.47;0.25;;;;;;;17.02;85.78;94578.19;5050293;28;20153;-50
2023/03/14 07:05:53;;;;;;;2.40;1.10;;;;;;;16.84;85.00;94588.94;5050653;28;20079;-47
2023/03/14 07:08:22;;;;;;;1.48;0.80;;;;;;;16.79;88.41;94592.31;5050238;28;20080;-48
2023/03/14 07:10:50;;;;;;;0.57;0.40;;;;;;;17.24;81.01;94601.59;5048997;28;20095;-48
2023/03/14 07:13:18;;;;;;;0.70;0.40;;;;;;;16.84;87.51;94597.75;5050449;28;20060;-48
2023/03/14 07:15:46;;;;;;;0.50;0.20;;;;;;;16.91;87.01;94602.97;5049472;28;20111;-45
2023/03/14 07:18:16;;;;;;;0.88;0.20;;;;;;;17.04;84.60;94615.25;5046611;28;20512;-51
2023/03/14 07:20:46;;;;;;;1.45;0.28;;;;;;;17.00;85.35;94622.09;5049508;28;20084;-51
2023/03/14 07:23:14;;;;;;;0.40;0.28;;;;;;;16.70;87.79;94622.91;5049984;28;20068;-48
2023/03/14 07:25:43;;;;;;;1.55;0.50;;;;;;;16.83;85.18;94620.09;5049564;28;20636;-49
2023/03/14 07:28:11;;;;;;;2.78;1.27;;;;;;;16.58;81.10;94612.22;5050108;28;20091;-50
2023/03/14 07:30:40;;;;;;;1.02;0.50;;;;;;;17.40;72.74;94613.41;5049574;28;20088;-46
2023/03/14 07:33:08;;;;;;;0.35;0.22;;;;;;;17.26;75.70;94604.84;5044870;28;20107;-49
2023/03/14 07:35:40;;;;;;;0.30;0.22;;;;;;;16.93;76.40;94600.91;5049418;28;20553;-51
2023/03/14 07:38:08;;;;;;;0.73;0.20;;;;;;;17.58;73.13;94591.94;5049814;28;20089;-49
2023/03/14 07:40:36;;;;;;;2.05;0.35;;;;;;;17.23;75.31;94608.78;5049288;28;20498;-49
2023/03/14 07:43:05;;;;;;;0.20;0.20;;;;;;;17.45;70.30;94600.22;5044681;28;20087;-47
2023/03/14 07:45:33;;;;;;;0.50;0.20;;;;;;;17.15;74.61;94603.78;5049012;28;20074;-46
2023/03/14 07:48:10;;;;;;;0.47;0.30;;;;;;;16.96;73.00;94596.94;5050003;28;20107;-51
2023/03/14 07:50:39;;;;;;;0.50;0.40;;;;;;;16.92;73.63;94596.59;5050977;28;20084;-47
2023/03/14 07:53:08;;;;;;;0.43;0.20;;;;;;;17.10;74.78;94595.66;5049623;28;20458;-49
2023/03/14 07:55:36;;;;;;;1.02;0.32;;;;;;;17.52;71.00;94599.03;5048466;28;20502;-46
2023/03/14 07:58:04;;;;;;;1.48;0.25;;;;;;;17.32;72.51;94596.72;5048789;28;20080;-46
2023/03/14 08:00:33;;;;;;;0.47;0.20;;;;;;;17.03;72.83;94600.31;5048671;28;20541;-47
2023/03/14 08:03:01;;;;;;;0.20;0.20;;;;;;;17.39;68.41;94596.63;5049418;28;20079;-46
2023/03/14 08:05:30;;;;;;;0.90;0.30;;;;;;;17.68;68.34;94594.84;5048222;28;20084;-46
2023/03/14 08:08:00;;;;;;;1.02;0.30;;;;;;;18.06;65.55;94593.50;5048541;28;20076;-47
2023/03/14 08:10:28;;;;;;;0.47;0.27;;;;;;;17.78;66.09;94595.06;5046322;28;20076;-47
2023/03/14 08:13:01;;;;;;;0.43;0.25;;;;;;;17.97;65.03;94603.75;5049024;28;20068;-48
2023/03/14 08:15:30;;;;;;;0.47;0.30;;;;;;;17.90;64.15;94603.06;5048358;28;20076;-48
2023/03/14 08:17:59;;;;;;;0.20;0.20;;;;;;;17.83;66.38;94607.72;5048625;28;20079;-49
2023/03/14 08:20:29;;;;;;;1.08;0.20;;;;;;;18.15;64.34;94605.41;5070705;28;20083;-48
2023/03/14 08:22:58;;;;;;;0.75;0.15;;;;;;;18.18;63.02;94607.63;5048437;28;20081;-45
2023/03/14 08:25:29;;;;;;;0.50;0.20;;;;;;;17.63;64.74;94608.06;5046834;28;20557;-51
2023/03/14 08:27:57;;;;;;;0.63;0.20;;;;;;;18.36;60.39;94605.81;5048297;28;20467;-45
2023/03/14 08:30:26;;;;;;;0.35;0.20;;;;;;;18.70;59.19;94598.69;5046702;28;20079;-46
2023/03/14 08:32:54;;;;;;;0.30;0.20;;;;;;;19.34;57.47;94599.22;5048238;28;20081;-45
2023/03/14 08:35:23;;;;;;;0.55;0.10;;;;;;;18.23;62.43;94610.38;5048273;28;20073;-49
2023/03/14 08:37:52;;;;;;;0.77;0.30;;;;;;;18.63;60.80;94606.03;5041284;28;20084;-47
2023/03/14 08:40:21;;;;;;;0.10;0.10;;;;;;;18.35;61.01;94621.00;5048649;28;20097;-47
2023/03/14 08:42:50;;;;;;;1.27;0.25;;;;;;;18.48;62.44;94619.94;5047971;28;20107;-52
2023/03/14 08:45:19;;;;;;;0.40;0.20;;;;;;;18.13;64.08;94628.84;5047926;28;20110;-47
2023/03/14 08:47:47;;;;;;;0.47;0.20;;;;;;;18.52;63.07;94623.72;5048138;28;20502;-47
2023/03/14 08:50:16;;;;;;;0.63;0.10;;;;;;;17.96;66.86;94635.97;5048335;28;20076;-48
2023/03/14 08:52:44;;;;;;;0.10;0.10;;;;;;;17.99;67.53;94638.97;5047853;28;20077;-47
2023/03/14 08:55:12;;;;;;;0.20;0.15;;;;;;;17.91;73.40;94635.88;5047915;28;20486;-47
2023/03/14 08:57:41;;;;;;;0.10;0.10;;;;;;;17.69;67.00;94635.66;5047530;28;20076;-45
2023/03/14 09:00:14;;;;;;;1.27;0.40;;;;;;;17.81;65.73;94641.00;5053648;28;20068;-49
2023/03/14 09:02:42;;;;;;;0.17;0.17;;;;;;;18.37;59.63;94634.91;5046300;28;20080;-48
2023/03/14 09:05:12;;;;;;;0.68;0.30;;;;;;;18.08;62.12;94638.63;5048235;28;20080;-48
2023/03/14 09:07:40;;;;;;;1.17;0.10;;;;;;;18.13;61.56;94642.19;5047816;28;20080;-48
2023/03/14 09:10:10;;;;;;;1.73;0.35;;;;;;;17.82;67.56;94635.41;5048305;28;20065;-48
2023/03/14 09:12:39;;;;;;;0.10;0.10;;;;;;;17.25;69.45;94636.00;5046220;28;20430;-50
2023/03/14 09:15:08;;;;;;;0.20;0.20;;;;;;;17.64;66.16;94635.53;5047189;28;20075;-46
2023/03/14 09:17:38;;;;;;;0.20;0.20;;;;;;;17.96;63.69;94630.63;5047508;28;20095;-46
2023/03/14 09:20:08;;;;;;;0.20;0.20;;;;;;;18.39;68.12;94616.81;5047985;28;20549;-45
2023/03/14 09:22:37;;;;;;;0.65;0.20;;;;;;;17.77;64.59;94632.66;5047583;28;20083;-48
2023/03/14 09:25:06;;;;;;;0.35;0.13;;;;;;;18.73;57.63;94620.41;5045641;28;20065;-53
2023/03/14 09:27:34;;;;;;;1.55;0.40;;;;;;;18.49;57.95;94629.53;5045191;28;20114;-50
2023/03/14 09:30:03;;;;;;;0.40;0.25;;;;;;;18.74;58.95;94627.34;5048335;28;20068;-47
2023/03/14 09:32:32;;;;;;;0.30;0.22;;;;;;;19.02;54.29;94619.53;5049585;28;20076;-52
2023/03/14 09:35:02;;;;;;;0.55;0.32;;;;;;;19.27;54.99;94611.09;5047910;28;20069;-45
2023/03/14 09:37:30;;;;;;;0.55;0.20;;;;;;;18.89;55.45;94618.81;5047486;28;20473;-47
2023/03/14 09:39:58;;;;;;;0.55;0.15;;;;;;;19.02;57.81;94615.00;5048144;28;20439;-44
2023/03/14 09:42:27;;;;;;;6.00;0.50;;;;;;;19.30;53.35;94616.75;5047653;28;20075;-48
2023/03/14 09:44:57;;;;;;;0.68;0.45;;;;;;;18.84;53.39;94602.69;5047956;28;20085;-48
2023/03/14 09:47:26;;;;;;;0.30;0.20;;;;;;;19.79;50.96;94613.50;5047585;28;20089;-50
2023/03/14 09:49:55;;;;;;;0.40;0.10;;;;;;;18.45;53.90;94609.72;5046510;28;20107;-46
2023/03/14 09:52:27;;;;;;;0.35;0.25;;;;;;;18.46;52.91;94603.31;5047771;28;20076;-46
2023/03/14 09:54:59;;;;;;;0.85;0.20;;;;;;;19.06;51.16;94609.97;5047103;28;20071;-47
2023/03/14 09:57:28;;;;;;;0.17;0.10;;;;;;;18.46;53.65;94611.34;5050925;28;20080;-45
2023/03/14 09:59:59;;;;;;;0.45;0.20;;;;;;;19.32;52.31;94605.84;5051293;28;20076;-45
2023/03/14 10:02:34;;;;;;;0.30;0.15;;;;;;;19.66;50.56;94601.28;5051404;28;20071;-47
2023/03/14 10:05:08;;;;;;;0.88;0.30;;;;;;;19.17;51.57;94609.91;5046938;28;20459;-50
2023/03/14 10:07:39;;;;;;;0.20;0.20;;;;;;;19.17;51.47;94599.22;5050908;28;20076;-51
2023/03/14 10:10:12;;;;;;;1.55;0.30;;;;;;;19.31;49.82;94594.34;5051169;28;20557;-50
2023/03/14 10:12:41;;;;;;;2.58;0.30;;;;;;;20.30;47.57;94581.97;5049838;28;20074;-49
2023/03/14 10:15:12;;;;;;;1.13;0.52;;;;;;;19.60;49.79;94589.66;5050904;28;20616;-45
2023/03/14 10:17:43;;;;;;;0.30;0.30;;;;;;;19.59;48.20;94584.59;5049648;28;20521;-49
2023/03/14 10:20:32;;;;;;;1.05;0.40;;;;;;;19.15;48.96;94589.81;5051132;28;20085;-46
2023/03/14 10:23:03;;;;;;;0.13;0.10;;;;;;;18.15;53.71;94592.09;5078796;28;20064;-48
2023/03/14 10:25:32;;;;;;;1.75;0.28;;;;;;;19.03;50.59;94578.41;5051224;28;20073;-48
2023/03/14 10:28:03;;;;;;;4.45;0.57;;;;;;;19.05;48.17;94571.78;5048094;28;20072;-48
2023/03/14 10:30:37;;;;;;;0.40;0.20;;;;;;;19.51;48.05;94571.63;5050522;28;20080;-48
2023/03/14 10:33:10;;;;;;;3.20;0.30;;;;;;;19.37;49.17;94580.03;5047235;28;20076;-49
2023/03/14 10:35:39;;;;;;;0.65;0.25;;;;;;;19.70;49.17;94578.34;5050235;28;20080;-50
2023/03/14 10:38:15;;;;;;;0.80;0.40;;;;;;;20.02;47.75;94577.66;5050752;28;20072;-50
2023/03/14 10:40:49;;;;;;;0.95;0.32;;;;;;;19.69;46.29;94587.44;5048646;28;20069;-52
2023/03/14 10:43:21;;;;;;;2.05;0.20;;;;;;;20.59;45.38;94583.41;5050288;28;20111;-46
2023/03/14 10:45:57;;;;;;;0.70;0.30;;;;;;;20.75;44.78;94583.53;5050415;28;20076;-48
2023/03/14 10:48:32;;;;;;;1.60;0.40;;;;;;;19.58;46.44;94586.47;5048849;28;20081;-47
2023/03/14 10:51:05;;;;;;;1.55;0.40;;;;;;;20.38;44.68;94570.84;5050413;28;20092;-46
2023/03/14 10:53:45;;;;;;;0.93;0.30;;;;;;;19.44;47.25;94580.66;5050317;28;20065;-48
2023/03/14 10:56:14;;;;;;;0.47;0.15;;;;;;;18.98;47.56;94582.63;5044778;28;20080;-51
2023/03/14 10:58:44;;;;;;;0.65;0.20;;;;;;;19.04;50.79;94582.72;5049676;28;20084;-45
2023/03/14 11:01:23;;;;;;;0.28;0.22;;;;;;;19.57;47.66;94578.66;5072100;28;20447;-49
2023/03/14 11:03:57;;;;;;;1.42;0.30;;;;;;;19.16;48.43;94586.91;5051532;28;20443;-49
2023/03/14 11:06:30;;;;;;;0.40;0.30;;;;;;;19.27;47.21;94579.03;5049968;28;20088;-51
2023/03/14 11:09:05;;;;;;;0.30;0.22;;;;;;;18.34;51.14;94594.56;5049031;28;20075;-49
2023/03/14 11:11:33;;;;;;;0.43;0.20;;;;;;;19.24;48.36;94579.56;5046638;28;20075;-45
2023/03/14 11:14:11;;;;;;;1.30;0.50;;;;;;;19.07;49.02;94584.91;5046458;28;20115;-47
2023/03/14 11:16:46;;;;;;;2.15;0.30;;;;;;;19.15;49.46;94587.16;5049744;28;20100;-48
2023/03/14 11:19:21;;;;;;;0.80;0.35;;;;;;;19.76;48.43;94576.56;5047494;28;20084;-48
2023/03/14 11:21:54;;;;;;;1.48;0.60;;;;;;;20.44;46.30;94561.81;5049310;28;20383;-47
2023/03/14 11:24:33;;;;;;;1.73;0.70;;;;;;;20.48;45.93;94570.94;5049461;28;20396;-46
2023/03/14 11:27:06;;;;;;;0.20;0.10;;;;;;;19.52;48.36;94566.03;5047334;28;20072;-45
2023/03/14 11:29:38;;;;;;;0.20;0.20;;;;;;;19.37;48.92;94572.00;5049317;28;20084;-49
2023/03/14 11:32:13;;;;;;;0.10;0.10;;;;;;;19.10;50.94;94566.53;5045842;28;20370;-49
2023/03/14 11:34:47;;;;;;;0.65;0.10;;;;;;;18.70;51.50;94561.31;5049303;28;20092;-47
2023/03/14 11:37:18;;;;;;;0.60;0.20;;;;;;;18.80;49.18;94560.69;5049739;28;20089;-49
2023/03/14 11:39:56;;;;;;;0.13;0.13;;;;;;;18.64;51.51;94562.25;5049054;28;20770;-47